Time;durP1;ratioP1;P1;durP2;ratioP2;P2;SDS_P1;SDS_P2;PMS_P1;PMS_P2;Temp;Humidity;BMP_temperature;BMP_pressure;BME280_temperature;BME280_humidity;BME280_pressure;Samples;Min_cycle;Max_cycle;Signal;HPM_P1;HPM_P2
2021/07/16 00:01:13;;;;;;;16.40;15.30;;;13.80;91.10;;;;;;5214605;28;20199;-70
2021/07/16 00:03:48;;;;;;;16.85;15.65;;;13.80;91.50;;;;;;5216400;28;20080;-70
2021/07/16 00:06:32;;;;;;;16.50;15.40;;;13.80;91.50;;;;;;5216699;28;20904;-72
2021/07/16 00:09:06;;;;;;;16.73;15.52;;;13.80;91.70;;;;;;5216086;28;20171;-71
2021/07/16 00:11:38;;;;;;;16.55;15.45;;;13.80;92.00;;;;;;5216775;28;20132;-69
2021/07/16 00:14:09;;;;;;;16.45;15.35;;;13.80;92.00;;;;;;5216179;28;20065;-70
2021/07/16 00:16:41;;;;;;;15.95;14.85;;;13.80;92.50;;;;;;5215578;28;20095;-70
2021/07/16 00:19:13;;;;;;;16.48;15.38;;;13.80;92.30;;;;;;5231505;28;20488;-70
2021/07/16 00:21:45;;;;;;;16.98;15.77;;;13.70;92.30;;;;;;5216602;28;20131;-69
2021/07/16 00:24:18;;;;;;;16.85;15.68;;;13.80;92.30;;;;;;5231627;28;20138;-70
2021/07/16 00:26:50;;;;;;;17.27;16.08;;;13.80;92.00;;;;;;5216366;28;20044;-70
2021/07/16 00:29:28;;;;;;;16.42;15.30;;;13.70;92.20;;;;;;5217061;28;20794;-69
2021/07/16 00:31:59;;;;;;;16.60;15.50;;;13.70;92.60;;;;;;5217025;28;20098;-70
2021/07/16 00:34:32;;;;;;;16.60;15.43;;;13.60;92.70;;;;;;5216421;28;20051;-71
2021/07/16 00:37:04;;;;;;;16.92;15.82;;;13.70;92.90;;;;;;5216391;28;20064;-70
2021/07/16 00:39:37;;;;;;;17.35;16.15;;;13.70;92.70;;;;;;5214990;28;20066;-70
2021/07/16 00:42:09;;;;;;;16.40;15.27;;;13.60;92.90;;;;;;5215949;28;20511;-69
2021/07/16 00:44:41;;;;;;;17.15;15.95;;;13.70;92.70;;;;;;5216741;28;20086;-69
2021/07/16 00:47:13;;;;;;;17.08;15.98;;;13.70;92.70;;;;;;5215932;28;20044;-69
2021/07/16 00:49:45;;;;;;;17.42;16.23;;;13.70;92.80;;;;;;5196883;28;20107;-70
2021/07/16 00:52:17;;;;;;;17.42;16.23;;;13.60;92.90;;;;;;5215462;28;20049;-70
2021/07/16 00:54:51;;;;;;;18.25;16.95;;;13.60;93.10;;;;;;5215517;28;20073;-70
2021/07/16 00:57:23;;;;;;;17.50;16.30;;;13.50;93.80;;;;;;5215421;28;20044;-71
2021/07/16 00:59:55;;;;;;;17.50;16.25;;;13.50;93.80;;;;;;5216159;28;20094;-70
2021/07/16 01:02:28;;;;;;;18.00;16.80;;;13.50;94.20;;;;;;5212649;28;20068;-70
2021/07/16 01:05:01;;;;;;;18.48;17.23;;;13.50;94.30;;;;;;5214955;28;20040;-70
2021/07/16 01:07:33;;;;;;;17.83;16.63;;;13.50;93.90;;;;;;5214998;28;20060;-70
2021/07/16 01:10:07;;;;;;;18.02;16.77;;;13.60;94.00;;;;;;5213233;28;20659;-69
2021/07/16 01:12:42;;;;;;;18.60;17.30;;;13.60;94.00;;;;;;5213540;28;20053;-69
2021/07/16 01:15:16;;;;;;;18.02;16.73;;;13.60;94.10;;;;;;5213264;28;20076;-70
2021/07/16 01:17:49;;;;;;;18.83;17.52;;;13.60;94.10;;;;;;5214559;28;20099;-69
2021/07/16 01:20:27;;;;;;;18.13;16.92;;;13.50;93.90;;;;;;5214691;28;20069;-70
2021/07/16 01:23:01;;;;;;;18.13;16.83;;;13.50;93.80;;;;;;5215203;28;20053;-69
2021/07/16 01:25:33;;;;;;;18.00;16.70;;;13.60;93.40;;;;;;5213828;28;20135;-70
2021/07/16 01:28:05;;;;;;;17.85;16.65;;;13.60;93.10;;;;;;5214736;28;20544;-70
2021/07/16 01:30:37;;;;;;;17.58;16.38;;;13.70;93.00;;;;;;5214243;28;20048;-70
2021/07/16 01:33:09;;;;;;;18.90;17.35;;;13.70;92.80;;;;;;5212165;28;20072;-70
2021/07/16 01:35:41;;;;;;;18.65;17.35;;;13.70;92.60;;;;;;5212666;28;20132;-69
2021/07/16 01:38:13;;;;;;;17.75;16.55;;;13.70;92.30;;;;;;5213927;28;20146;-69
2021/07/16 01:40:46;;;;;;;17.92;16.73;;;13.80;92.50;;;;;;5211966;28;20151;-70
2021/07/16 01:43:18;;;;;;;17.92;16.73;;;13.70;92.20;;;;;;5213272;28;20070;-70
2021/07/16 01:45:50;;;;;;;17.73;16.52;;;13.80;92.10;;;;;;5213476;28;20057;-70
2021/07/16 01:48:22;;;;;;;18.30;17.10;;;13.70;91.80;;;;;;5215327;28;20043;-70
2021/07/16 01:50:54;;;;;;;18.52;17.13;;;13.70;92.10;;;;;;5213304;28;20061;-70
2021/07/16 01:53:26;;;;;;;18.55;17.23;;;13.70;91.90;;;;;;5212871;28;20037;-70
2021/07/16 01:55:58;;;;;;;18.27;16.98;;;13.70;91.90;;;;;;5209528;28;20565;-70
2021/07/16 01:58:30;;;;;;;18.45;17.25;;;13.70;91.60;;;;;;5215469;28;20071;-69
2021/07/16 02:01:02;;;;;;;17.92;16.73;;;13.60;91.40;;;;;;5212560;28;20142;-69
2021/07/16 02:03:34;;;;;;;18.33;17.13;;;13.60;91.60;;;;;;5214367;28;20053;-70
2021/07/16 02:06:06;;;;;;;18.48;17.17;;;13.60;91.50;;;;;;5215562;28;20187;-69
2021/07/16 02:08:40;;;;;;;17.80;16.60;;;13.60;91.00;;;;;;5218864;28;20834;-69
2021/07/16 02:11:12;;;;;;;17.77;16.58;;;13.60;91.30;;;;;;5217652;28;20128;-69
2021/07/16 02:13:44;;;;;;;17.88;16.67;;;13.60;91.10;;;;;;5219799;28;20068;-70
2021/07/16 02:16:17;;;;;;;17.85;16.65;;;13.60;91.40;;;;;;5216491;28;20041;-70
2021/07/16 02:18:51;;;;;;;18.20;17.00;;;13.60;91.40;;;;;;5218821;28;20053;-70
2021/07/16 02:21:22;;;;;;;18.30;17.08;;;13.60;91.40;;;;;;5217809;28;20063;-70
2021/07/16 02:23:54;;;;;;;17.80;16.50;;;13.60;91.20;;;;;;5218158;28;20570;-71
2021/07/16 02:26:26;;;;;;;17.60;16.40;;;13.60;91.20;;;;;;5217197;28;20124;-69
2021/07/16 02:28:58;;;;;;;17.70;16.50;;;13.60;91.10;;;;;;5217533;28;20103;-70
2021/07/16 02:31:30;;;;;;;17.52;16.33;;;13.60;91.90;;;;;;5218665;28;20128;-70
2021/07/16 02:34:03;;;;;;;17.90;16.70;;;13.60;91.20;;;;;;5218645;28;20771;-70
2021/07/16 02:36:35;;;;;;;18.25;16.95;;;13.60;91.40;;;;;;5217678;28;20064;-70
2021/07/16 02:39:06;;;;;;;17.88;16.67;;;13.50;91.10;;;;;;5217448;28;20485;-70
2021/07/16 02:41:38;;;;;;;17.70;16.48;;;13.50;91.20;;;;;;5215569;28;20513;-69
2021/07/16 02:44:10;;;;;;;18.50;17.10;;;13.50;90.90;;;;;;5214185;28;20453;-69
2021/07/16 02:46:42;;;;;;;17.75;16.45;;;13.50;90.90;;;;;;5213740;28;20037;-68
2021/07/16 02:49:14;;;;;;;18.27;17.08;;;13.50;90.90;;;;;;5217925;28;20061;-70
2021/07/16 02:51:46;;;;;;;17.77;16.58;;;13.50;90.00;;;;;;5217007;28;20131;-70
2021/07/16 02:54:18;;;;;;;18.10;16.80;;;13.50;90.30;;;;;;5216425;28;20087;-70
2021/07/16 02:56:50;;;;;;;17.83;16.63;;;13.50;90.40;;;;;;5217681;28;20136;-70
2021/07/16 02:59:21;;;;;;;17.80;16.60;;;13.50;90.60;;;;;;5218421;28;20497;-70
2021/07/16 03:01:57;;;;;;;17.23;16.02;;;13.50;90.30;;;;;;5216872;28;20526;-70
2021/07/16 03:04:30;;;;;;;17.50;16.27;;;13.50;90.20;;;;;;5215731;28;20465;-70
2021/07/16 03:07:02;;;;;;;17.33;16.13;;;13.40;90.40;;;;;;5217798;28;20456;-70
2021/07/16 03:09:34;;;;;;;17.20;16.00;;;13.30;90.30;;;;;;5216091;28;20099;-70
2021/07/16 03:12:06;;;;;;;16.88;15.77;;;13.30;90.80;;;;;;5217399;28;20041;-70
2021/07/16 03:14:39;;;;;;;17.15;15.95;;;13.30;90.90;;;;;;5214928;28;20128;-69
2021/07/16 03:17:11;;;;;;;17.45;16.23;;;13.20;90.70;;;;;;5216059;28;20110;-70
2021/07/16 03:19:43;;;;;;;16.85;15.65;;;13.20;90.90;;;;;;5217369;28;20102;-71
2021/07/16 03:22:14;;;;;;;17.27;16.10;;;13.10;91.10;;;;;;5217793;28;20072;-70
2021/07/16 03:24:46;;;;;;;17.42;16.17;;;13.00;91.20;;;;;;5215214;28;20148;-70
2021/07/16 03:27:18;;;;;;;17.88;16.60;;;13.00;91.40;;;;;;5217301;28;20076;-70
2021/07/16 03:29:50;;;;;;;17.50;16.30;;;12.90;91.30;;;;;;5216560;28;20033;-70
2021/07/16 03:32:22;;;;;;;17.40;16.20;;;12.90;91.70;;;;;;5217946;28;20068;-70
2021/07/16 03:34:54;;;;;;;17.40;16.23;;;12.90;91.60;;;;;;5216513;28;20098;-70
2021/07/16 03:37:26;;;;;;;17.98;16.63;;;13.00;91.10;;;;;;5216335;28;20129;-70
2021/07/16 03:39:58;;;;;;;17.30;16.08;;;13.00;91.20;;;;;;5213982;28;20094;-70
2021/07/16 03:42:30;;;;;;;17.55;16.35;;;13.00;91.10;;;;;;5215300;28;20044;-70
2021/07/16 03:45:04;;;;;;;17.63;15.90;;;13.00;91.20;;;;;;5213898;28;20639;-67
2021/07/16 03:47:36;;;;;;;17.02;15.80;;;13.00;91.80;;;;;;5217035;28;20037;-70
2021/07/16 03:50:10;;;;;;;16.63;15.48;;;13.00;91.10;;;;;;5217049;28;20055;-70
2021/07/16 03:52:42;;;;;;;16.98;15.77;;;13.00;91.10;;;;;;5216478;28;20087;-69
2021/07/16 03:55:14;;;;;;;17.05;15.85;;;12.90;91.10;;;;;;5217096;28;20044;-70
2021/07/16 03:57:49;;;;;;;17.02;15.90;;;13.00;91.20;;;;;;5216668;28;20516;-69
2021/07/16 04:00:28;;;;;;;16.95;15.82;;;13.00;91.20;;;;;;5216865;28;20072;-70
2021/07/16 04:03:03;;;;;;;16.65;15.55;;;13.10;91.20;;;;;;5218108;28;20045;-70
2021/07/16 04:05:40;;;;;;;16.77;15.43;;;13.10;91.10;;;;;;5214170;28;20834;-70
2021/07/16 04:08:17;;;;;;;16.80;15.60;;;13.20;90.80;;;;;;5216160;28;20045;-70
2021/07/16 04:10:49;;;;;;;17.25;16.05;;;13.20;91.00;;;;;;5221264;28;20041;-71
2021/07/16 04:13:21;;;;;;;16.35;15.23;;;13.20;90.80;;;;;;5217860;28;20040;-69
2021/07/16 04:15:53;;;;;;;16.80;15.70;;;13.20;91.30;;;;;;5216093;28;20079;-69
2021/07/16 04:18:25;;;;;;;16.55;15.45;;;13.20;91.30;;;;;;5217039;28;20130;-69
2021/07/16 04:20:56;;;;;;;16.73;15.55;;;13.20;91.20;;;;;;5215116;28;20103;-70
2021/07/16 04:23:28;;;;;;;16.88;15.70;;;13.30;91.60;;;;;;5217098;28;20139;-70
2021/07/16 04:26:00;;;;;;;16.35;15.25;;;13.20;91.80;;;;;;5216530;28;20033;-70
2021/07/16 04:28:32;;;;;;;16.48;15.38;;;13.30;92.00;;;;;;5216867;28;20120;-70
2021/07/16 04:31:04;;;;;;;16.05;14.95;;;13.20;92.00;;;;;;5216600;28;20057;-70
2021/07/16 04:33:36;;;;;;;16.30;15.20;;;13.30;92.00;;;;;;5216671;28;20161;-70
2021/07/16 04:36:08;;;;;;;16.20;15.10;;;13.30;91.60;;;;;;5215820;28;20061;-70
2021/07/16 04:38:40;;;;;;;16.58;15.48;;;13.40;91.80;;;;;;5216744;28;20118;-70
2021/07/16 04:41:12;;;;;;;17.15;16.05;;;13.40;91.40;;;;;;5215190;28;20044;-70
2021/07/16 04:43:44;;;;;;;16.95;15.85;;;13.50;91.50;;;;;;5215913;28;20060;-71
2021/07/16 04:46:16;;;;;;;16.67;15.57;;;13.50;90.90;;;;;;5212814;28;20040;-71
2021/07/16 04:48:48;;;;;;;17.02;15.73;;;13.60;90.90;;;;;;5213599;28;20117;-72
2021/07/16 04:51:31;;;;;;;16.60;15.50;;;13.60;90.80;;;;;;5216403;28;20385;-71
2021/07/16 04:54:05;;;;;;;16.30;15.20;;;13.60;90.90;;;;;;5217957;28;20095;-74
2021/07/16 04:56:37;;;;;;;17.23;16.08;;;13.60;90.80;;;;;;5215783;28;20049;-74
2021/07/16 04:59:09;;;;;;;16.55;15.45;;;13.60;90.40;;;;;;5217670;28;20080;-73
2021/07/16 05:01:41;;;;;;;17.13;15.98;;;13.60;89.80;;;;;;5216766;28;20688;-73
2021/07/16 05:04:14;;;;;;;17.20;16.00;;;13.60;90.30;;;;;;5217086;28;20506;-71
2021/07/16 05:06:46;;;;;;;16.80;15.70;;;13.60;89.80;;;;;;5214103;28;20132;-71
2021/07/16 05:09:18;;;;;;;16.60;15.50;;;13.60;89.90;;;;;;5215563;28;20536;-70
2021/07/16 05:11:51;;;;;;;17.05;15.88;;;13.70;90.00;;;;;;5212671;28;20142;-71
2021/07/16 05:14:24;;;;;;;16.48;15.38;;;13.70;90.10;;;;;;5217066;28;20127;-71
2021/07/16 05:16:56;;;;;;;16.73;15.63;;;13.70;90.30;;;;;;5214175;28;20098;-71
2021/07/16 05:19:28;;;;;;;20.02;15.68;;;13.60;89.70;;;;;;5215444;28;20102;-71
2021/07/16 05:22:01;;;;;;;16.50;15.38;;;13.60;89.90;;;;;;5211863;28;20503;-70
2021/07/16 05:24:33;;;;;;;16.75;15.65;;;13.60;89.70;;;;;;5212622;28;20036;-71
2021/07/16 05:27:06;;;;;;;16.83;15.73;;;13.70;89.80;;;;;;5213696;28;20081;-70
2021/07/16 05:29:38;;;;;;;17.80;16.52;;;13.70;90.00;;;;;;5215061;28;20044;-70
2021/07/16 05:32:09;;;;;;;16.88;15.65;;;13.70;89.50;;;;;;5215009;28;20055;-70
2021/07/16 05:34:41;;;;;;;17.55;16.25;;;13.70;89.70;;;;;;5210295;28;20167;-70
2021/07/16 05:37:13;;;;;;;17.20;16.00;;;13.70;88.70;;;;;;5213165;28;20123;-70
2021/07/16 05:39:45;;;;;;;16.73;15.63;;;13.80;89.00;;;;;;5213287;28;20143;-70
2021/07/16 05:42:17;;;;;;;16.77;15.68;;;14.00;89.00;;;;;;5213363;28;20053;-70
2021/07/16 05:44:50;;;;;;;17.52;16.27;;;14.00;88.70;;;;;;5212625;28;20045;-70
2021/07/16 05:47:23;;;;;;;17.00;15.90;;;14.20;88.50;;;;;;5213666;28;20049;-72
2021/07/16 05:49:54;;;;;;;17.15;16.05;;;14.30;88.30;;;;;;5214611;28;20044;-70
2021/07/16 05:52:27;;;;;;;17.05;15.85;;;14.30;88.60;;;;;;5214959;28;20133;-69
2021/07/16 05:55:00;;;;;;;16.77;15.57;;;14.50;87.40;;;;;;5215674;28;20104;-70
2021/07/16 05:57:32;;;;;;;16.42;15.32;;;14.60;88.40;;;;;;5213529;28;20049;-71
2021/07/16 06:00:04;;;;;;;16.50;15.40;;;14.60;88.70;;;;;;5218726;28;20045;-70
2021/07/16 06:02:42;;;;;;;17.15;16.05;;;14.70;88.00;;;;;;5216637;28;20060;-71
2021/07/16 06:05:15;;;;;;;16.15;14.95;;;14.70;87.40;;;;;;5214367;28;20057;-70
2021/07/16 06:07:47;;;;;;;16.08;14.88;;;14.70;87.70;;;;;;5216256;28;20167;-70
2021/07/16 06:10:19;;;;;;;16.13;15.02;;;14.90;87.50;;;;;;5215877;28;20041;-70
2021/07/16 06:12:50;;;;;;;16.23;15.13;;;15.00;87.50;;;;;;5212622;28;20091;-70
2021/07/16 06:15:24;;;;;;;16.48;15.27;;;15.10;87.50;;;;;;5211932;28;20819;-70
2021/07/16 06:17:56;;;;;;;16.83;15.60;;;15.20;87.50;;;;;;5216539;28;20163;-72
2021/07/16 06:20:28;;;;;;;16.73;15.63;;;15.30;87.10;;;;;;5214470;28;20139;-70
2021/07/16 06:23:00;;;;;;;16.30;15.20;;;15.40;85.50;;;;;;5214903;28;20135;-71
2021/07/16 06:25:31;;;;;;;16.52;15.35;;;15.40;86.70;;;;;;5215899;28;20072;-72
2021/07/16 06:28:04;;;;;;;16.40;15.30;;;15.40;86.30;;;;;;5217680;28;20484;-72
2021/07/16 06:30:36;;;;;;;16.63;15.52;;;15.50;86.40;;;;;;5215171;28;20052;-70
2021/07/16 06:33:07;;;;;;;16.92;15.82;;;15.60;85.40;;;;;;5216752;28;20122;-70
2021/07/16 06:35:39;;;;;;;17.40;16.20;;;15.80;85.40;;;;;;5214606;28;20060;-70
2021/07/16 06:38:11;;;;;;;16.75;15.65;;;15.80;85.00;;;;;;5217459;28;20525;-70
2021/07/16 06:40:43;;;;;;;16.98;15.85;;;16.00;84.70;;;;;;5214669;28;20083;-70
2021/07/16 06:43:16;;;;;;;17.20;16.10;;;16.20;84.50;;;;;;5217528;28;20387;-72
2021/07/16 06:45:48;;;;;;;17.52;16.35;;;16.40;84.50;;;;;;5215304;28;20068;-72
2021/07/16 06:48:20;;;;;;;17.77;16.58;;;16.50;82.10;;;;;;5216158;28;20445;-72
2021/07/16 06:50:52;;;;;;;17.45;16.25;;;16.60;82.60;;;;;;5216100;28;20065;-72
2021/07/16 06:53:24;;;;;;;17.90;16.70;;;16.60;81.50;;;;;;5220396;28;20094;-72
2021/07/16 06:55:56;;;;;;;17.42;16.23;;;16.60;81.60;;;;;;5219522;28;20137;-71
2021/07/16 06:58:28;;;;;;;17.88;16.67;;;16.60;81.80;;;;;;5219901;28;20049;-70
2021/07/16 07:01:00;;;;;;;18.25;17.05;;;16.60;79.40;;;;;;5220163;28;20055;-70
2021/07/16 07:03:32;;;;;;;18.15;16.95;;;16.70;80.80;;;;;;5220081;28;20041;-71
2021/07/16 07:06:05;;;;;;;18.33;17.13;;;16.90;81.50;;;;;;5218758;28;20057;-71
2021/07/16 07:08:37;;;;;;;17.90;16.70;;;17.10;78.40;;;;;;5218275;28;20049;-71
2021/07/16 07:11:09;;;;;;;17.83;16.63;;;17.10;77.60;;;;;;5218715;28;20044;-71
2021/07/16 07:13:41;;;;;;;17.80;16.60;;;17.10;77.90;;;;;;5218812;28;20121;-69
2021/07/16 07:16:16;;;;;;;17.73;16.52;;;17.10;79.70;;;;;;5217993;28;20954;-69
2021/07/16 07:18:48;;;;;;;17.38;16.17;;;17.20;81.00;;;;;;5218546;28;20067;-69
2021/07/16 07:21:20;;;;;;;17.85;16.65;;;17.20;80.20;;;;;;5218302;28;20083;-69
2021/07/16 07:23:52;;;;;;;17.38;16.17;;;17.30;82.60;;;;;;5218739;28;20094;-68
2021/07/16 07:26:24;;;;;;;17.48;16.38;;;17.40;83.00;;;;;;5217364;28;20660;-69
2021/07/16 07:28:56;;;;;;;18.55;17.27;;;17.40;81.20;;;;;;5217907;28;20140;-69
2021/07/16 07:31:28;;;;;;;18.08;16.88;;;17.40;80.30;;;;;;5219488;28;20037;-69
2021/07/16 07:34:00;;;;;;;18.00;16.70;;;17.50;82.50;;;;;;5220099;28;20045;-69
2021/07/16 07:36:32;;;;;;;18.13;16.92;;;17.50;81.60;;;;;;5216095;28;20126;-70
2021/07/16 07:39:05;;;;;;;18.45;17.25;;;17.60;80.00;;;;;;5220209;28;20045;-70
2021/07/16 07:41:37;;;;;;;18.30;17.10;;;17.60;81.90;;;;;;5217139;28;20045;-68
2021/07/16 07:44:09;;;;;;;18.30;17.10;;;17.70;82.10;;;;;;5218557;28;20129;-69
2021/07/16 07:46:42;;;;;;;18.17;16.80;;;17.70;80.70;;;;;;5218090;28;20550;-69
2021/07/16 07:49:14;;;;;;;17.88;16.58;;;17.70;81.30;;;;;;5220673;28;20041;-69
2021/07/16 07:51:46;;;;;;;17.90;16.65;;;17.80;82.40;;;;;;5218354;28;20123;-71
2021/07/16 07:54:18;;;;;;;18.25;16.85;;;17.90;81.10;;;;;;5218126;28;20036;-72
2021/07/16 07:56:50;;;;;;;17.42;16.13;;;17.90;79.20;;;;;;5219167;28;20126;-71
2021/07/16 07:59:22;;;;;;;18.48;17.17;;;17.90;82.50;;;;;;5218830;28;20056;-71
2021/07/16 08:01:57;;;;;;;18.35;17.15;;;18.00;81.40;;;;;;5219093;28;20738;-72
2021/07/16 08:04:31;;;;;;;17.65;16.45;;;18.00;81.30;;;;;;5220073;28;20056;-72
2021/07/16 08:07:05;;;;;;;17.50;16.40;;;18.00;81.70;;;;;;5217570;28;20600;-71
2021/07/16 08:09:38;;;;;;;17.58;16.38;;;18.10;81.50;;;;;;5217236;28;20064;-72
2021/07/16 08:12:10;;;;;;;17.90;16.70;;;18.10;80.20;;;;;;5212337;28;20049;-74
2021/07/16 08:14:42;;;;;;;17.45;16.25;;;18.10;79.40;;;;;;5217403;28;20033;-73
2021/07/16 08:17:14;;;;;;;17.83;16.63;;;18.10;78.30;;;;;;5216186;28;20575;-71
2021/07/16 08:19:46;;;;;;;17.10;16.00;;;18.20;78.40;;;;;;5218474;28;20799;-72
2021/07/16 08:22:18;;;;;;;17.75;16.45;;;18.20;78.70;;;;;;5218501;28;20135;-73
2021/07/16 08:24:50;;;;;;;17.95;16.75;;;18.10;77.60;;;;;;5217983;28;20098;-71
2021/07/16 08:27:22;;;;;;;17.92;16.73;;;18.20;79.10;;;;;;5216504;28;20138;-71
2021/07/16 08:29:54;;;;;;;17.73;16.58;;;18.30;79.40;;;;;;5219020;28;20057;-71
2021/07/16 08:32:26;;;;;;;17.38;16.27;;;18.30;78.20;;;;;;5217219;28;20120;-72
2021/07/16 08:34:57;;;;;;;17.45;16.33;;;18.30;78.30;;;;;;5215445;28;20068;-72
2021/07/16 08:37:29;;;;;;;17.13;15.93;;;18.30;77.40;;;;;;5215605;28;20069;-71
2021/07/16 08:40:03;;;;;;;18.58;17.27;;;18.40;77.80;;;;;;5218407;28;20138;-72
2021/07/16 08:42:36;;;;;;;18.85;17.58;;;18.40;77.90;;;;;;5215764;28;20094;-72
2021/07/16 08:45:10;;;;;;;18.25;17.05;;;18.40;78.20;;;;;;5215036;28;20769;-71
2021/07/16 08:47:42;;;;;;;17.60;16.40;;;18.50;77.70;;;;;;5218765;28;20064;-71
2021/07/16 08:50:15;;;;;;;17.70;16.50;;;18.50;77.30;;;;;;5218246;28;20069;-69
2021/07/16 08:52:47;;;;;;;18.02;16.83;;;18.60;77.10;;;;;;5217920;28;20191;-70
2021/07/16 08:55:20;;;;;;;17.98;16.77;;;18.60;77.10;;;;;;5214152;28;20034;-70
2021/07/16 08:57:51;;;;;;;18.42;17.23;;;18.60;76.20;;;;;;5217455;28;20068;-71
2021/07/16 09:00:23;;;;;;;18.67;17.33;;;18.80;77.10;;;;;;5217911;28;20095;-69
2021/07/16 09:02:58;;;;;;;18.33;17.13;;;19.30;75.40;;;;;;5214391;28;20559;-71
2021/07/16 09:05:32;;;;;;;18.90;17.60;;;19.40;76.00;;;;;;5213323;28;20056;-68
2021/07/16 09:08:17;;;;;;;18.10;16.90;;;19.40;74.70;;;;;;5217011;28;20606;-69
2021/07/16 09:10:52;;;;;;;17.98;16.77;;;19.40;74.90;;;;;;5212766;28;20048;-69
2021/07/16 09:13:25;;;;;;;18.27;17.05;;;19.50;75.90;;;;;;5217139;28;20049;-69
2021/07/16 09:15:59;;;;;;;17.90;16.70;;;19.50;75.20;;;;;;5216826;28;20045;-68
2021/07/16 09:18:32;;;;;;;17.95;16.75;;;19.50;74.20;;;;;;5215826;28;20091;-72
2021/07/16 09:21:06;;;;;;;17.70;16.50;;;19.50;74.50;;;;;;5214884;28;20060;-71
2021/07/16 09:23:44;;;;;;;18.08;16.88;;;19.40;74.40;;;;;;5214292;28;20045;-72
2021/07/16 09:26:24;;;;;;;17.92;16.73;;;19.40;75.10;;;;;;5215414;28;20482;-71
2021/07/16 09:28:57;;;;;;;17.77;16.58;;;19.40;74.20;;;;;;5214927;28;20063;-72
2021/07/16 09:31:38;;;;;;;17.45;16.25;;;19.50;74.50;;;;;;5212654;28;20064;-72
2021/07/16 09:34:12;;;;;;;17.50;16.30;;;19.50;75.20;;;;;;5212762;28;20043;-71
2021/07/16 09:36:44;;;;;;;17.70;16.50;;;19.50;75.70;;;;;;5214511;28;20160;-72
2021/07/16 09:39:18;;;;;;;17.15;15.98;;;19.50;74.30;;;;;;5213814;28;20119;-72
2021/07/16 09:41:53;;;;;;;17.70;16.42;;;19.50;73.30;;;;;;5214236;28;20041;-71
2021/07/16 09:44:31;;;;;;;17.15;16.05;;;19.50;74.30;;;;;;5214856;28;20041;-72
2021/07/16 09:47:21;;;;;;;17.83;16.63;;;19.60;73.60;;;;;;5215258;28;20132;-72
2021/07/16 09:50:11;;;;;;;18.00;16.70;;;19.70;73.60;;;;;;5217041;28;20041;-71
2021/07/16 09:52:43;;;;;;;17.58;16.38;;;19.80;74.20;;;;;;5216048;28;20132;-71
2021/07/16 09:55:18;;;;;;;17.55;16.35;;;19.80;73.40;;;;;;5213834;28;20084;-71
2021/07/16 09:58:00;;;;;;;17.73;16.52;;;19.90;72.60;;;;;;5212881;28;20044;-72
2021/07/16 10:00:32;;;;;;;17.60;16.40;;;19.90;73.70;;;;;;5215632;28;20460;-72
2021/07/16 10:03:05;;;;;;;17.58;16.38;;;20.00;71.80;;;;;;5214255;28;20053;-72
2021/07/16 10:05:39;;;;;;;17.75;16.55;;;20.00;72.30;;;;;;5212190;28;20050;-71
2021/07/16 10:08:12;;;;;;;17.70;16.50;;;20.00;72.50;;;;;;5215578;28;20526;-72
2021/07/16 10:10:47;;;;;;;17.58;16.40;;;20.10;71.90;;;;;;5213163;28;20103;-71
2021/07/16 10:13:19;;;;;;;17.95;16.75;;;20.10;71.10;;;;;;5216059;28;20461;-71
2021/07/16 10:15:51;;;;;;;17.77;16.48;;;20.10;71.30;;;;;;5216092;28;20876;-72
2021/07/16 10:18:25;;;;;;;17.65;16.45;;;20.10;71.30;;;;;;5214869;28;20040;-71
2021/07/16 10:20:57;;;;;;;18.15;16.95;;;20.20;70.20;;;;;;5213298;28;20037;-72
2021/07/16 10:23:29;;;;;;;17.95;16.75;;;20.20;70.70;;;;;;5214757;28;20734;-72
2021/07/16 10:26:03;;;;;;;18.52;17.30;;;20.30;68.50;;;;;;5214935;28;20472;-68
2021/07/16 10:28:41;;;;;;;18.25;17.05;;;20.30;71.20;;;;;;5217699;28;20114;-68
2021/07/16 10:31:28;;;;;;;18.05;16.85;;;20.50;70.40;;;;;;5220172;28;20052;-69
2021/07/16 10:34:27;;;;;;;18.10;16.90;;;20.60;67.80;;;;;;5236366;28;20041;-70
2021/07/16 10:37:02;;;;;;;18.13;16.92;;;20.80;68.50;;;;;;5217459;28;20107;-69
2021/07/16 10:39:45;;;;;;;18.48;17.27;;;21.00;67.40;;;;;;5219436;28;20065;-69
2021/07/16 10:42:25;;;;;;;18.23;17.02;;;21.20;67.90;;;;;;5221133;28;20720;-69
2021/07/16 10:44:59;;;;;;;18.95;17.65;;;21.20;67.90;;;;;;5220103;28;20095;-68
2021/07/16 10:47:38;;;;;;;18.65;17.45;;;21.30;67.70;;;;;;5218327;28;20091;-68
2021/07/16 10:50:13;;;;;;;18.80;17.60;;;21.30;66.70;;;;;;5217396;28;20052;-68
2021/07/16 10:52:50;;;;;;;18.48;17.17;;;21.50;66.20;;;;;;5220162;28;20136;-69
2021/07/16 10:55:28;;;;;;;18.85;17.60;;;21.60;66.30;;;;;;5218733;28;20049;-74
2021/07/16 10:58:19;;;;;;;18.70;17.50;;;21.70;66.80;;;;;;5217366;28;20072;-70
2021/07/16 11:00:53;;;;;;;19.08;17.85;;;21.70;66.00;;;;;;5220681;28;20052;-70
2021/07/16 11:03:49;;;;;;;18.70;17.50;;;21.80;67.20;;;;;;5219644;28;20060;-71
2021/07/16 11:06:42;;;;;;;18.67;17.48;;;21.80;62.90;;;;;;5218125;28;20041;-71
2021/07/16 11:09:43;;;;;;;18.50;17.30;;;21.80;65.00;;;;;;5219271;28;20037;-70
2021/07/16 11:12:23;;;;;;;19.25;17.85;;;21.90;66.00;;;;;;5218945;28;20099;-71
2021/07/16 11:14:55;;;;;;;18.90;17.67;;;22.00;65.40;;;;;;5219259;28;20140;-71
2021/07/16 11:17:38;;;;;;;19.02;17.70;;;22.00;66.20;;;;;;5214317;28;20399;-71
2021/07/16 11:20:19;;;;;;;19.67;18.38;;;22.20;65.40;;;;;;5218892;28;20124;-71
2021/07/16 11:22:55;;;;;;;18.90;17.60;;;22.30;64.60;;;;;;5220314;28;20308;-71
2021/07/16 11:25:28;;;;;;;19.60;18.00;;;22.30;64.80;;;;;;5216505;28;20089;-72
2021/07/16 11:27:59;;;;;;;18.83;17.52;;;22.40;64.50;;;;;;5217503;28;20106;-73
2021/07/16 11:30:31;;;;;;;19.52;18.23;;;22.40;65.30;;;;;;5216890;28;20045;-72
2021/07/16 11:33:06;;;;;;;18.75;17.55;;;22.40;65.40;;;;;;5217755;28;20058;-73
2021/07/16 11:35:37;;;;;;;19.00;17.80;;;22.30;65.60;;;;;;5214127;28;20132;-71
2021/07/16 11:38:09;;;;;;;18.95;17.67;;;22.30;64.80;;;;;;5216927;28;20060;-70
2021/07/16 11:40:41;;;;;;;19.25;17.95;;;22.30;66.40;;;;;;5216815;28;20091;-70
2021/07/16 11:43:14;;;;;;;19.33;18.02;;;22.20;64.90;;;;;;5218295;28;20164;-70
2021/07/16 11:45:52;;;;;;;19.10;17.90;;;22.40;66.60;;;;;;5217926;28;20053;-73
2021/07/16 11:48:25;;;;;;;19.67;18.17;;;22.70;66.40;;;;;;5219617;28;20041;-73
2021/07/16 11:51:06;;;;;;;19.13;17.83;;;23.00;65.40;;;;;;5218208;28;20128;-74
2021/07/16 11:53:38;;;;;;;19.02;17.80;;;23.20;61.40;;;;;;5220558;28;20036;-73
2021/07/16 11:56:13;;;;;;;18.80;17.60;;;23.40;60.90;;;;;;5216653;28;20615;-74
2021/07/16 11:58:49;;;;;;;19.58;18.27;;;23.50;61.10;;;;;;5219212;28;20230;-74
2021/07/16 12:01:21;;;;;;;19.42;18.13;;;23.50;58.80;;;;;;5219357;28;20037;-71
2021/07/16 12:03:53;;;;;;;19.00;17.80;;;23.50;57.90;;;;;;5217650;28;20552;-71
2021/07/16 12:06:25;;;;;;;18.77;17.48;;;23.50;58.40;;;;;;5214679;28;20053;-71
2021/07/16 12:08:57;;;;;;;18.95;17.75;;;23.40;59.90;;;;;;5217861;28;20121;-71
2021/07/16 12:11:29;;;;;;;18.90;17.63;;;23.40;60.20;;;;;;5216369;28;20495;-71
2021/07/16 12:14:01;;;;;;;18.80;17.52;;;23.50;61.60;;;;;;5218632;28;20503;-71
2021/07/16 12:16:33;;;;;;;18.83;17.63;;;23.60;55.30;;;;;;5214910;28;20472;-71
2021/07/16 12:19:05;;;;;;;18.95;17.75;;;23.70;58.40;;;;;;5216098;28;20044;-71
2021/07/16 12:21:39;;;;;;;19.27;17.98;;;23.60;61.10;;;;;;5217402;28;20073;-71
2021/07/16 12:24:14;;;;;;;18.52;17.33;;;23.60;57.70;;;;;;5218866;28;20127;-70
2021/07/16 12:26:46;;;;;;;19.02;17.73;;;23.70;59.80;;;;;;5216500;28;20099;-72
2021/07/16 12:29:28;;;;;;;18.63;17.42;;;23.80;60.90;;;;;;5218920;28;20063;-71
2021/07/16 12:32:00;;;;;;;18.58;17.23;;;23.70;60.10;;;;;;5212132;28;20651;-71
2021/07/16 12:34:34;;;;;;;18.77;17.58;;;23.70;60.20;;;;;;5218412;28;20037;-73
2021/07/16 12:37:14;;;;;;;18.83;17.55;;;23.80;59.50;;;;;;5214934;28;20718;-74
2021/07/16 12:39:46;;;;;;;18.65;17.45;;;23.90;59.90;;;;;;5219099;28;20099;-72
2021/07/16 12:42:19;;;;;;;18.63;17.42;;;24.00;58.40;;;;;;5217614;28;20041;-73
2021/07/16 12:45:03;;;;;;;19.23;17.80;;;24.10;59.30;;;;;;5218564;28;20158;-74
2021/07/16 12:47:52;;;;;;;18.90;17.67;;;24.10;58.90;;;;;;5217909;28;20049;-75
2021/07/16 12:50:25;;;;;;;19.17;17.88;;;24.30;59.00;;;;;;5217328;28;20056;-74
2021/07/16 12:53:01;;;;;;;19.23;17.92;;;24.40;56.20;;;;;;5216268;28;20044;-75
2021/07/16 12:55:35;;;;;;;19.20;17.90;;;24.40;58.10;;;;;;5215016;28;20048;-75
2021/07/16 12:58:09;;;;;;;19.30;18.00;;;24.60;56.60;;;;;;5216399;28;20106;-74
2021/07/16 13:00:41;;;;;;;19.08;17.77;;;24.60;52.90;;;;;;5217751;28;20063;-74